Time;durP1;ratioP1;P1;durP2;ratioP2;P2;SDS_P1;SDS_P2;PMS_P1;PMS_P2;Temp;Humidity;BMP_temperature;BMP_pressure;BME280_temperature;BME280_humidity;BME280_pressure;Samples;Min_cycle;Max_cycle;Signal;HPM_P1;HPM_P2
2023/11/25 00:00:48;;;;;;;6.95;1.70;;;1.20;99.90;;;;;;5035770;28;20034;-69
2023/11/25 00:03:15;;;;;;;9.60;2.13;;;1.20;99.90;;;;;;5042158;28;20025;-70
2023/11/25 00:05:41;;;;;;;4.88;1.52;;;1.20;99.90;;;;;;5043662;28;20281;-70
2023/11/25 00:08:07;;;;;;;10.27;2.47;;;1.10;99.90;;;;;;5042744;28;20033;-70
2023/11/25 00:10:33;;;;;;;13.68;2.38;;;1.10;99.90;;;;;;5045350;28;20040;-70
2023/11/25 00:12:59;;;;;;;4.72;1.98;;;1.00;99.90;;;;;;5044511;28;20049;-70
2023/11/25 00:15:24;;;;;;;11.90;2.10;;;1.00;99.90;;;;;;5041333;28;20091;-70
2023/11/25 00:17:59;;;;;;;9.50;1.98;;;1.00;99.90;;;;;;5040617;28;20112;-70
2023/11/25 00:20:25;;;;;;;8.50;1.98;;;1.00;99.90;;;;;;5024795;28;20017;-70
2023/11/25 00:22:52;;;;;;;9.32;3.67;;;0.90;99.90;;;;;;5025215;28;20039;-70
2023/11/25 00:25:18;;;;;;;6.20;1.60;;;0.90;99.90;;;;;;5041102;28;20374;-70
2023/11/25 00:27:46;;;;;;;14.50;1.73;;;1.00;99.90;;;;;;5036854;28;20103;-70
2023/11/25 00:30:14;;;;;;;10.30;2.33;;;1.10;99.90;;;;;;5025659;28;20031;-70
2023/11/25 00:32:41;;;;;;;11.13;2.28;;;1.20;99.90;;;;;;5044338;28;20024;-70
2023/11/25 00:35:08;;;;;;;4.53;1.55;;;1.30;99.90;;;;;;5036693;28;20025;-69
2023/11/25 00:37:39;;;;;;;8.73;1.50;;;1.30;99.90;;;;;;5037342;28;20041;-69
2023/11/25 00:40:09;;;;;;;3.95;1.27;;;1.40;99.90;;;;;;5024976;28;20055;-69
2023/11/25 00:42:40;;;;;;;6.03;1.58;;;1.40;99.90;;;;;;5042401;28;20018;-69
2023/11/25 00:45:07;;;;;;;6.78;1.70;;;1.40;99.90;;;;;;5033518;28;20083;-69
2023/11/25 00:47:34;;;;;;;5.22;1.80;;;1.50;99.90;;;;;;5042641;28;20025;-69
2023/11/25 00:50:00;;;;;;;9.70;1.45;;;1.50;99.90;;;;;;5036815;28;20037;-69
2023/11/25 00:52:26;;;;;;;11.45;1.90;;;1.50;99.90;;;;;;5038028;28;20116;-69
2023/11/25 00:54:51;;;;;;;8.90;1.50;;;1.50;99.90;;;;;;5022137;28;20673;-69
2023/11/25 00:57:17;;;;;;;8.95;2.00;;;1.60;99.90;;;;;;5040660;28;20100;-70
2023/11/25 00:59:43;;;;;;;9.75;2.33;;;1.60;99.90;;;;;;5040853;28;20033;-70
2023/11/25 01:02:08;;;;;;;7.28;1.70;;;1.50;99.90;;;;;;5041318;28;20034;-70
2023/11/25 01:04:34;;;;;;;7.15;2.33;;;1.50;99.90;;;;;;5041998;28;20099;-70
2023/11/25 01:07:00;;;;;;;6.75;1.73;;;1.50;99.90;;;;;;5037462;28;20025;-70
2023/11/25 01:09:28;;;;;;;4.90;1.75;;;1.50;99.90;;;;;;5026259;28;20109;-71
2023/11/25 01:11:54;;;;;;;8.38;1.60;;;1.50;99.90;;;;;;5035459;28;20053;-71
2023/11/25 01:14:20;;;;;;;4.63;1.75;;;1.60;99.90;;;;;;5039093;28;20064;-71
2023/11/25 01:16:45;;;;;;;9.50;2.35;;;1.60;99.90;;;;;;5033244;28;20040;-71
2023/11/25 01:19:11;;;;;;;7.28;2.08;;;1.60;99.90;;;;;;5036675;28;20072;-71
2023/11/25 01:21:37;;;;;;;9.82;2.42;;;1.60;99.90;;;;;;5037489;28;20052;-71
2023/11/25 01:24:06;;;;;;;8.57;2.03;;;1.70;99.90;;;;;;5035218;28;20021;-71
2023/11/25 01:26:32;;;;;;;10.88;2.50;;;1.70;99.90;;;;;;5010469;28;20045;-71
2023/11/25 01:29:00;;;;;;;11.00;2.65;;;1.60;99.90;;;;;;5036311;28;20081;-71
2023/11/25 01:31:26;;;;;;;10.90;3.03;;;1.70;99.90;;;;;;5018845;28;20070;-71
2023/11/25 01:33:51;;;;;;;8.70;2.85;;;1.70;99.90;;;;;;5033297;28;20418;-71
2023/11/25 01:36:17;;;;;;;10.07;2.60;;;1.70;99.90;;;;;;5031358;28;20033;-71
2023/11/25 01:38:43;;;;;;;8.18;2.95;;;1.70;99.90;;;;;;5016041;28;20037;-71
2023/11/25 01:41:09;;;;;;;5.97;1.60;;;1.60;99.90;;;;;;5014233;28;20029;-71
2023/11/25 01:43:34;;;;;;;7.72;2.50;;;1.70;99.90;;;;;;5033490;28;20042;-71
2023/11/25 01:46:04;;;;;;;6.85;2.30;;;1.70;99.90;;;;;;5015197;28;20166;-71
2023/11/25 01:48:30;;;;;;;6.75;2.17;;;1.70;99.90;;;;;;5032549;28;20021;-71
2023/11/25 01:51:00;;;;;;;7.85;2.42;;;1.70;99.90;;;;;;5033885;28;20025;-70
2023/11/25 01:53:26;;;;;;;6.07;2.08;;;1.70;99.90;;;;;;5030031;28;20505;-70
2023/11/25 01:55:55;;;;;;;9.70;2.83;;;1.80;99.90;;;;;;5012388;28;20037;-70
2023/11/25 01:58:21;;;;;;;8.23;2.20;;;1.80;99.90;;;;;;5032460;28;20033;-70
2023/11/25 02:00:49;;;;;;;11.68;2.47;;;1.80;99.90;;;;;;5033936;28;20452;-70
2023/11/25 02:03:15;;;;;;;10.38;3.03;;;1.80;99.90;;;;;;5035642;28;20036;-71
2023/11/25 02:05:42;;;;;;;10.15;2.75;;;1.70;99.90;;;;;;5033061;28;20021;-71
2023/11/25 02:08:08;;;;;;;9.80;2.72;;;1.70;99.90;;;;;;5035447;28;20040;-71
2023/11/25 02:10:34;;;;;;;9.40;2.65;;;1.70;99.90;;;;;;5015457;28;20038;-71
2023/11/25 02:13:02;;;;;;;8.00;2.78;;;1.70;99.90;;;;;;5035947;28;20709;-71
2023/11/25 02:15:28;;;;;;;7.38;2.70;;;1.70;99.90;;;;;;5016230;28;20099;-69
2023/11/25 02:17:55;;;;;;;10.23;3.58;;;1.60;99.90;;;;;;5036926;28;20041;-69
2023/11/25 02:20:40;;;;;;;12.90;3.03;;;1.60;99.90;;;;;;5035845;28;20040;-69
2023/11/25 02:23:16;;;;;;;8.93;2.67;;;1.50;99.90;;;;;;5018290;28;20128;-72
2023/11/25 02:25:51;;;;;;;10.10;2.42;;;1.50;99.90;;;;;;5017104;28;20018;-71
2023/11/25 02:28:21;;;;;;;8.55;2.40;;;1.60;99.90;;;;;;5033011;28;20117;-71
2023/11/25 02:30:48;;;;;;;8.80;3.00;;;1.60;99.90;;;;;;5028467;28;20025;-71
2023/11/25 02:33:16;;;;;;;12.88;3.53;;;1.50;99.90;;;;;;5034871;28;20089;-71
2023/11/25 02:35:43;;;;;;;10.73;2.65;;;1.40;99.90;;;;;;5020617;28;20041;-71
2023/11/25 02:38:10;;;;;;;8.13;2.17;;;1.40;99.90;;;;;;5039655;28;20036;-71
2023/11/25 02:40:37;;;;;;;8.85;2.70;;;1.40;99.90;;;;;;5034643;28;20031;-71
2023/11/25 02:43:03;;;;;;;15.27;2.80;;;1.40;99.90;;;;;;5015306;28;20029;-71
2023/11/25 02:45:29;;;;;;;17.25;2.70;;;1.40;99.90;;;;;;5014644;28;20041;-71
2023/11/25 02:47:55;;;;;;;15.40;3.03;;;1.30;99.90;;;;;;5031988;28;20068;-71
2023/11/25 02:50:21;;;;;;;8.25;2.45;;;1.30;99.90;;;;;;5036391;28;20056;-71
2023/11/25 02:52:47;;;;;;;10.48;2.88;;;1.20;99.90;;;;;;5033078;28;20393;-71
2023/11/25 02:55:12;;;;;;;13.50;3.72;;;1.10;99.90;;;;;;5035701;28;20049;-71
2023/11/25 02:57:45;;;;;;;11.13;3.70;;;1.10;99.90;;;;;;5017334;28;20025;-71
2023/11/25 03:02:53;;;;;;;16.88;4.45;;;1.00;99.90;;;;;;5028177;28;20029;-71
2023/11/25 03:05:22;;;;;;;17.33;3.80;;;1.10;99.90;;;;;;5034130;28;20385;-71
2023/11/25 03:07:49;;;;;;;15.60;4.63;;;1.10;99.90;;;;;;5037253;28;20022;-71
2023/11/25 03:10:16;;;;;;;20.48;6.03;;;1.10;99.90;;;;;;5019800;28;20476;-71
2023/11/25 03:12:44;;;;;;;17.75;5.22;;;1.10;99.90;;;;;;5022779;28;20069;-71
2023/11/25 03:15:11;;;;;;;20.00;5.22;;;1.00;99.90;;;;;;5035161;28;20021;-71
2023/11/25 03:17:37;;;;;;;11.00;3.70;;;1.00;99.90;;;;;;5030112;28;20029;-71
2023/11/25 03:20:02;;;;;;;20.80;5.78;;;1.00;99.90;;;;;;5034549;28;20032;-71
2023/11/25 03:22:28;;;;;;;17.60;4.82;;;1.00;99.90;;;;;;5036902;28;20025;-71
2023/11/25 03:24:56;;;;;;;17.52;5.60;;;1.00;99.90;;;;;;5030117;28;20144;-69
2023/11/25 03:27:22;;;;;;;18.23;5.22;;;0.90;99.90;;;;;;5031280;28;20025;-69
2023/11/25 03:29:47;;;;;;;10.98;3.42;;;1.00;99.90;;;;;;5031754;28;20092;-69
2023/11/25 03:32:14;;;;;;;15.85;4.22;;;1.00;99.90;;;;;;5034690;28;20025;-69
2023/11/25 03:34:40;;;;;;;24.92;5.35;;;1.10;99.90;;;;;;5032385;28;20021;-69
2023/11/25 03:37:06;;;;;;;18.63;4.05;;;1.10;99.90;;;;;;5031931;28;20033;-69
2023/11/25 03:39:32;;;;;;;19.67;4.45;;;1.10;99.90;;;;;;5035266;28;20096;-69
2023/11/25 03:42:00;;;;;;;17.05;4.05;;;1.20;99.90;;;;;;5033979;28;20034;-69
2023/11/25 03:44:26;;;;;;;15.93;4.55;;;1.20;99.90;;;;;;5034892;28;20082;-69
2023/11/25 03:46:52;;;;;;;16.60;3.92;;;1.20;99.90;;;;;;5032284;28;20025;-69
2023/11/25 03:49:18;;;;;;;24.52;4.68;;;1.20;99.90;;;;;;5039412;28;20131;-69
2023/11/25 03:51:44;;;;;;;11.32;3.05;;;1.30;99.90;;;;;;5038837;28;20137;-69
2023/11/25 03:54:12;;;;;;;20.67;5.47;;;1.30;99.90;;;;;;5033901;28;20032;-69
2023/11/25 03:56:38;;;;;;;18.17;4.30;;;1.30;99.90;;;;;;5034768;28;20029;-69
2023/11/25 03:59:06;;;;;;;19.58;3.85;;;1.30;99.90;;;;;;5031452;28;20060;-69
2023/11/25 04:01:31;;;;;;;21.25;4.68;;;1.40;99.90;;;;;;5033765;28;20480;-69
2023/11/25 04:03:57;;;;;;;21.15;3.78;;;1.50;99.90;;;;;;5037450;28;20022;-69
2023/11/25 04:06:23;;;;;;;12.38;4.07;;;1.50;99.90;;;;;;5040030;28;20108;-69
2023/11/25 04:08:48;;;;;;;16.65;4.43;;;1.60;99.90;;;;;;5037585;28;20103;-69
2023/11/25 04:11:14;;;;;;;16.27;4.45;;;1.60;99.90;;;;;;5038848;28;20028;-69
2023/11/25 04:13:40;;;;;;;13.50;3.45;;;1.60;99.90;;;;;;5037129;28;20456;-69
2023/11/25 04:16:05;;;;;;;24.90;5.57;;;1.60;99.90;;;;;;5022058;28;21141;-69
2023/11/25 04:18:31;;;;;;;24.98;5.25;;;1.60;99.90;;;;;;5036580;28;20073;-69
2023/11/25 04:20:56;;;;;;;24.98;4.80;;;1.60;99.90;;;;;;5038286;28;20049;-69
2023/11/25 04:23:22;;;;;;;15.63;4.18;;;1.60;99.90;;;;;;5032463;28;20526;-69
2023/11/25 04:25:48;;;;;;;15.40;4.47;;;1.60;99.90;;;;;;5017948;28;20029;-69
2023/11/25 04:28:14;;;;;;;17.38;4.88;;;1.70;99.90;;;;;;5024317;28;20021;-69
2023/11/25 04:30:40;;;;;;;13.40;2.97;;;1.70;99.90;;;;;;5039577;28;20045;-69
2023/11/25 04:33:09;;;;;;;19.08;4.18;;;1.60;99.90;;;;;;5042319;28;20423;-69
2023/11/25 04:35:36;;;;;;;21.30;4.82;;;1.60;99.90;;;;;;5042833;28;20028;-69
2023/11/25 04:38:02;;;;;;;16.42;4.85;;;1.50;99.90;;;;;;5040219;28;20368;-69
2023/11/25 04:40:28;;;;;;;15.20;4.22;;;1.50;99.90;;;;;;5043891;28;20018;-69
2023/11/25 04:42:53;;;;;;;19.83;4.50;;;1.50;99.90;;;;;;5039098;28;20029;-70
2023/11/25 04:45:20;;;;;;;10.48;3.70;;;1.40;99.90;;;;;;5022887;28;20480;-69
2023/11/25 04:47:47;;;;;;;18.25;4.38;;;1.40;99.90;;;;;;5041270;28;20022;-69
2023/11/25 04:50:14;;;;;;;13.07;3.50;;;1.40;99.90;;;;;;5042424;28;20025;-69
2023/11/25 04:52:40;;;;;;;19.50;4.28;;;1.30;99.90;;;;;;5039704;28;20021;-68
2023/11/25 04:55:13;;;;;;;18.30;4.63;;;1.30;99.90;;;;;;5024183;28;20394;-68
2023/11/25 04:57:40;;;;;;;26.13;5.30;;;1.40;99.90;;;;;;5023353;28;20040;-68
2023/11/25 05:00:10;;;;;;;21.70;4.38;;;1.40;99.90;;;;;;5019843;28;20025;-68
2023/11/25 05:02:39;;;;;;;26.08;4.75;;;1.40;99.90;;;;;;5036038;28;20117;-68
2023/11/25 05:05:05;;;;;;;14.73;4.68;;;1.30;99.90;;;;;;5042721;28;20033;-68
2023/11/25 05:07:32;;;;;;;15.70;2.97;;;1.30;99.90;;;;;;5043763;28;20129;-68
2023/11/25 05:09:58;;;;;;;17.17;4.22;;;1.40;99.90;;;;;;5038735;28;20025;-68
2023/11/25 05:12:24;;;;;;;23.88;5.13;;;1.40;99.90;;;;;;5039138;28;20120;-68
2023/11/25 05:14:50;;;;;;;18.30;5.00;;;1.30;99.90;;;;;;5041634;28;20032;-68
2023/11/25 05:17:17;;;;;;;27.67;5.07;;;1.30;99.90;;;;;;5040316;28;20025;-68
2023/11/25 05:19:45;;;;;;;24.05;4.95;;;1.30;99.90;;;;;;5040621;28;20032;-68
2023/11/25 05:22:10;;;;;;;10.68;3.42;;;1.30;99.90;;;;;;5041486;28;20499;-68
2023/11/25 05:24:38;;;;;;;20.05;4.40;;;1.30;99.90;;;;;;5039240;28;20026;-68
2023/11/25 05:27:04;;;;;;;22.73;5.10;;;1.30;99.90;;;;;;5022324;28;20025;-68
2023/11/25 05:29:30;;;;;;;15.30;3.97;;;1.40;99.90;;;;;;5039544;28;20025;-68
2023/11/25 05:31:56;;;;;;;24.73;4.93;;;1.40;99.90;;;;;;5040377;28;20090;-68
2023/11/25 05:34:23;;;;;;;21.02;3.72;;;1.50;99.90;;;;;;5039751;28;20064;-68
2023/11/25 05:36:49;;;;;;;16.98;4.15;;;1.60;99.90;;;;;;5042079;28;20137;-68
2023/11/25 05:39:14;;;;;;;16.70;3.95;;;1.60;99.90;;;;;;5020229;28;20116;-68
2023/11/25 05:41:40;;;;;;;16.17;4.53;;;1.70;99.90;;;;;;5041037;28;20025;-68
2023/11/25 05:44:10;;;;;;;26.42;5.05;;;1.90;99.90;;;;;;5021956;28;20018;-68
2023/11/25 05:46:36;;;;;;;10.35;2.90;;;1.90;99.90;;;;;;5039322;28;20366;-68
2023/11/25 05:49:04;;;;;;;18.05;3.17;;;2.00;99.90;;;;;;5021028;28;20446;-68
2023/11/25 05:51:36;;;;;;;13.95;3.75;;;2.00;99.90;;;;;;5020694;28;20029;-68
2023/11/25 05:54:02;;;;;;;13.85;3.55;;;2.10;99.90;;;;;;5038178;28;20029;-68
2023/11/25 05:56:28;;;;;;;12.55;3.60;;;2.10;99.90;;;;;;5038274;28;20477;-68
2023/11/25 05:58:54;;;;;;;16.73;3.95;;;2.10;99.90;;;;;;5023766;28;20040;-68
2023/11/25 06:01:20;;;;;;;15.52;2.90;;;2.20;99.90;;;;;;5019174;28;20487;-68
2023/11/25 06:03:46;;;;;;;12.68;3.30;;;2.20;99.90;;;;;;5039202;28;20492;-68
2023/11/25 06:06:12;;;;;;;11.23;3.03;;;2.20;99.90;;;;;;5039438;28;20307;-69
2023/11/25 06:08:37;;;;;;;15.75;4.03;;;2.20;99.90;;;;;;5021533;28;20036;-69
2023/11/25 06:11:03;;;;;;;12.95;3.80;;;2.20;99.90;;;;;;5040522;28;20052;-69
2023/11/25 06:13:29;;;;;;;12.05;3.60;;;2.30;99.90;;;;;;5038004;28;20056;-69
2023/11/25 06:15:56;;;;;;;13.98;3.13;;;2.30;99.90;;;;;;5040521;28;20025;-69
2023/11/25 06:18:22;;;;;;;21.60;4.07;;;2.30;99.90;;;;;;5039282;28;20025;-69
2023/11/25 06:20:48;;;;;;;18.80;3.90;;;2.30;99.90;;;;;;5021743;28;20476;-69
2023/11/25 06:23:14;;;;;;;10.50;2.53;;;2.30;99.90;;;;;;5039946;28;20118;-69
2023/11/25 06:25:42;;;;;;;11.52;3.33;;;2.40;99.90;;;;;;5038193;28;20589;-69
2023/11/25 06:28:14;;;;;;;20.30;3.60;;;2.40;99.90;;;;;;5033006;28;20021;-69
2023/11/25 06:30:40;;;;;;;11.55;3.13;;;2.40;99.90;;;;;;5020366;28;20030;-69
2023/11/25 06:33:06;;;;;;;22.55;3.92;;;2.40;99.90;;;;;;5040677;28;20017;-69
2023/11/25 06:35:33;;;;;;;15.40;3.08;;;2.40;99.90;;;;;;5020122;28;20099;-69
2023/11/25 06:37:59;;;;;;;13.48;3.15;;;2.40;99.90;;;;;;5033942;28;20088;-69
2023/11/25 06:40:25;;;;;;;11.10;2.90;;;2.40;99.90;;;;;;5040339;28;20025;-69
2023/11/25 06:42:52;;;;;;;24.60;3.63;;;2.50;99.90;;;;;;5021305;28;20036;-69
2023/11/25 06:45:19;;;;;;;18.35;3.55;;;2.50;99.90;;;;;;5041230;28;20021;-69
2023/11/25 06:47:44;;;;;;;7.80;2.40;;;2.50;99.90;;;;;;5020053;28;20108;-69
2023/11/25 06:50:11;;;;;;;8.77;2.28;;;2.50;99.90;;;;;;5018621;28;20029;-69
2023/11/25 06:52:37;;;;;;;14.00;4.63;;;2.60;99.90;;;;;;5040168;28;20048;-68
2023/11/25 06:55:04;;;;;;;23.17;3.20;;;2.60;99.90;;;;;;5018660;28;20056;-68
2023/11/25 06:57:29;;;;;;;17.30;3.60;;;2.50;99.90;;;;;;5037097;28;20017;-68
2023/11/25 06:59:56;;;;;;;9.68;2.95;;;2.60;99.90;;;;;;5017963;28;20694;-68
2023/11/25 07:02:26;;;;;;;16.55;3.03;;;2.60;99.90;;;;;;5041642;28;20453;-68
2023/11/25 07:04:52;;;;;;;10.70;2.22;;;2.60;99.90;;;;;;5039706;28;20021;-70
2023/11/25 07:07:18;;;;;;;12.75;3.17;;;2.60;99.90;;;;;;5039486;28;20091;-70
2023/11/25 07:09:43;;;;;;;20.52;3.25;;;2.70;99.90;;;;;;5019166;28;20029;-70
2023/11/25 07:12:10;;;;;;;21.52;4.55;;;2.60;99.90;;;;;;5018859;28;20021;-70
2023/11/25 07:14:37;;;;;;;14.55;3.05;;;2.60;99.90;;;;;;5040044;28;20033;-70
2023/11/25 07:17:02;;;;;;;7.85;2.15;;;2.60;99.90;;;;;;5037475;28;20033;-70
2023/11/25 07:19:31;;;;;;;16.15;3.45;;;2.60;99.90;;;;;;5041259;28;20444;-70
2023/11/25 07:21:57;;;;;;;14.07;3.45;;;2.60;99.90;;;;;;5037909;28;20030;-70
2023/11/25 07:24:27;;;;;;;10.85;2.42;;;2.60;99.90;;;;;;5022615;28;20313;-70
2023/11/25 07:26:54;;;;;;;20.08;3.35;;;2.60;99.90;;;;;;5037052;28;20120;-70
2023/11/25 07:29:20;;;;;;;14.70;2.90;;;2.60;99.90;;;;;;5015931;28;20037;-70
2023/11/25 07:31:46;;;;;;;11.93;3.20;;;2.60;99.90;;;;;;5042187;28;20491;-70
2023/11/25 07:34:12;;;;;;;10.70;3.15;;;2.50;99.90;;;;;;5023856;28;20029;-70
2023/11/25 07:36:41;;;;;;;16.23;3.38;;;2.60;99.90;;;;;;5024341;28;20037;-70
2023/11/25 07:39:06;;;;;;;8.25;2.03;;;2.60;99.90;;;;;;5040567;28;20027;-70
2023/11/25 07:41:32;;;;;;;13.88;2.95;;;2.60;99.90;;;;;;5039895;28;20097;-71
2023/11/25 07:43:58;;;;;;;9.43;2.47;;;2.60;99.90;;;;;;5039690;28;20025;-71
2023/11/25 07:46:23;;;;;;;10.20;3.00;;;2.60;99.90;;;;;;5040677;28;20025;-71
2023/11/25 07:48:49;;;;;;;9.25;2.70;;;2.60;99.90;;;;;;5020473;28;20029;-71
2023/11/25 07:51:14;;;;;;;12.35;3.33;;;2.60;99.90;;;;;;5040268;28;20469;-71
2023/11/25 07:53:40;;;;;;;21.60;4.30;;;2.70;99.90;;;;;;5020111;28;20032;-71
2023/11/25 07:56:06;;;;;;;14.23;3.30;;;2.70;99.90;;;;;;5034505;28;20028;-70
2023/11/25 07:58:32;;;;;;;13.00;2.78;;;2.70;99.90;;;;;;5037494;28;20025;-70
2023/11/25 08:00:58;;;;;;;16.58;2.95;;;2.70;99.90;;;;;;5016487;28;20441;-70
2023/11/25 08:03:23;;;;;;;12.93;2.33;;;2.70;99.90;;;;;;5046207;28;20017;-71
2023/11/25 08:05:49;;;;;;;11.18;3.28;;;2.70;99.90;;;;;;5038053;28;20037;-70
2023/11/25 08:08:17;;;;;;;12.40;2.95;;;2.70;99.90;;;;;;5039941;28;20477;-69
2023/11/25 08:10:42;;;;;;;17.70;3.17;;;2.70;99.90;;;;;;5029775;28;20030;-70
2023/11/25 08:13:08;;;;;;;16.98;3.60;;;2.80;99.90;;;;;;5041052;28;20083;-70
2023/11/25 08:15:34;;;;;;;19.08;4.70;;;2.80;99.90;;;;;;5040252;28;20021;-69
2023/11/25 08:18:00;;;;;;;13.98;3.40;;;2.90;99.90;;;;;;5039488;28;20025;-69
2023/11/25 08:20:26;;;;;;;19.30;4.75;;;2.90;99.90;;;;;;5023114;28;20032;-70
2023/11/25 08:22:51;;;;;;;17.63;5.35;;;2.80;99.90;;;;;;5015595;28;20120;-70
2023/11/25 08:25:18;;;;;;;16.40;4.63;;;2.80;99.90;;;;;;5037998;28;20025;-70
2023/11/25 08:27:44;;;;;;;30.33;5.20;;;2.80;99.90;;;;;;5040253;28;20131;-70
2023/11/25 08:30:09;;;;;;;7.55;2.72;;;2.80;99.90;;;;;;5020512;28;20111;-70
2023/11/25 08:32:39;;;;;;;17.02;4.65;;;2.80;99.90;;;;;;5031454;28;20024;-70
2023/11/25 08:35:06;;;;;;;25.25;7.10;;;2.80;99.90;;;;;;5035200;28;20033;-70
2023/11/25 08:37:32;;;;;;;26.50;6.25;;;2.80;99.90;;;;;;5039644;28;20025;-70
2023/11/25 08:39:58;;;;;;;14.38;4.43;;;2.80;99.90;;;;;;5040289;28;20029;-70
2023/11/25 08:42:26;;;;;;;18.38;4.95;;;2.80;99.90;;;;;;5022336;28;20075;-70
2023/11/25 08:44:52;;;;;;;11.85;3.70;;;2.80;99.90;;;;;;5037022;28;20021;-70
2023/11/25 08:47:20;;;;;;;15.48;3.05;;;2.90;99.90;;;;;;5018855;28;20033;-70
2023/11/25 08:49:46;;;;;;;19.70;4.18;;;3.00;99.90;;;;;;5034603;28;20022;-70
2023/11/25 08:52:15;;;;;;;12.77;3.25;;;3.00;99.90;;;;;;5039116;28;20021;-69
2023/11/25 08:54:40;;;;;;;23.63;3.83;;;3.10;99.90;;;;;;5033342;28;20061;-70
2023/11/25 08:57:08;;;;;;;16.13;3.65;;;3.10;99.90;;;;;;5013017;28;20052;-70
2023/11/25 08:59:33;;;;;;;19.15;4.75;;;3.00;99.90;;;;;;5037147;28;20071;-70
2023/11/25 09:01:59;;;;;;;18.27;3.55;;;3.10;99.90;;;;;;5035830;28;20018;-70
2023/11/25 09:04:27;;;;;;;9.82;3.00;;;3.10;99.90;;;;;;5040395;28;20496;-69
2023/11/25 09:06:55;;;;;;;13.70;4.65;;;3.10;99.90;;;;;;5039423;28;20063;-70
2023/11/25 09:09:20;;;;;;;11.13;3.53;;;3.20;99.90;;;;;;5022792;28;20034;-70
2023/11/25 09:11:49;;;;;;;16.55;4.80;;;3.20;99.90;;;;;;5037053;28;20045;-70
2023/11/25 09:14:16;;;;;;;22.17;4.65;;;3.30;99.90;;;;;;5036798;28;20046;-70
2023/11/25 09:16:43;;;;;;;12.73;3.97;;;3.30;99.90;;;;;;5034597;28;20033;-71
2023/11/25 09:19:08;;;;;;;13.82;4.60;;;3.30;99.90;;;;;;5034050;28;20030;-71
2023/11/25 09:21:34;;;;;;;12.50;3.70;;;3.50;99.90;;;;;;5022135;28;20040;-70
2023/11/25 09:24:00;;;;;;;10.48;4.25;;;3.40;99.90;;;;;;5034813;28;20470;-70
2023/11/25 09:26:28;;;;;;;15.82;5.28;;;3.50;99.90;;;;;;5039588;28;20021;-70
2023/11/25 09:28:54;;;;;;;12.13;5.13;;;3.50;99.90;;;;;;5034768;28;20032;-70
2023/11/25 09:31:20;;;;;;;9.40;3.22;;;3.50;99.90;;;;;;5038504;28;20465;-70
2023/11/25 09:33:47;;;;;;;14.13;4.93;;;3.70;99.90;;;;;;5018073;28;20119;-70
2023/11/25 09:36:13;;;;;;;9.98;2.67;;;3.80;99.90;;;;;;5036103;28;20345;-70
2023/11/25 09:38:41;;;;;;;11.98;4.25;;;3.90;99.90;;;;;;5039946;28;20547;-70
2023/11/25 09:41:07;;;;;;;14.52;4.95;;;3.90;99.90;;;;;;5037675;28;20021;-70
2023/11/25 09:43:33;;;;;;;10.93;3.67;;;3.90;99.90;;;;;;5041887;28;20413;-70
2023/11/25 09:46:01;;;;;;;11.20;3.70;;;3.90;99.90;;;;;;5035489;28;20021;-70
2023/11/25 09:48:27;;;;;;;7.85;3.25;;;3.90;99.90;;;;;;5040691;28;20028;-70
2023/11/25 09:50:54;;;;;;;13.57;3.30;;;3.90;99.90;;;;;;5041000;28;20082;-70
2023/11/25 09:53:25;;;;;;;12.88;4.68;;;3.90;99.90;;;;;;5034434;28;20034;-70
2023/11/25 09:56:05;;;;;;;12.18;3.45;;;4.20;99.90;;;;;;5033486;28;20433;-70
2023/11/25 09:58:35;;;;;;;12.97;3.93;;;4.40;99.90;;;;;;5041349;28;20083;-70
2023/11/25 10:01:05;;;;;;;9.23;3.72;;;4.40;99.90;;;;;;5038295;28;20021;-70
2023/11/25 10:03:33;;;;;;;7.03;2.55;;;4.40;99.90;;;;;;5023180;28;20032;-70
2023/11/25 10:05:59;;;;;;;9.45;3.25;;;4.40;99.90;;;;;;5041976;28;20021;-70
2023/11/25 10:08:24;;;;;;;8.60;3.22;;;4.40;99.90;;;;;;5038805;28;20049;-70
2023/11/25 10:11:01;;;;;;;12.20;4.32;;;4.40;99.90;;;;;;5024517;28;20079;-70
2023/11/25 10:13:32;;;;;;;13.35;4.15;;;4.30;99.90;;;;;;5032097;28;20049;-70
2023/11/25 10:15:59;;;;;;;12.27;4.32;;;4.20;99.90;;;;;;5039528;28;20025;-70
2023/11/25 10:18:24;;;;;;;10.75;3.45;;;4.20;99.90;;;;;;5032916;28;20552;-70
2023/11/25 10:20:57;;;;;;;11.63;3.90;;;4.10;99.90;;;;;;5041437;28;20111;-70
2023/11/25 10:23:26;;;;;;;14.63;4.90;;;4.10;99.90;;;;;;5042549;28;20037;-70
2023/11/25 10:25:52;;;;;;;11.35;4.45;;;4.00;99.90;;;;;;5033263;28;20055;-70
2023/11/25 10:28:20;;;;;;;15.40;5.93;;;4.00;99.90;;;;;;5038728;28;20112;-70
2023/11/25 10:30:54;;;;;;;16.98;5.30;;;4.00;99.90;;;;;;5034408;28;20030;-70
2023/11/25 10:33:27;;;;;;;11.80;5.28;;;4.00;99.90;;;;;;5034460;28;20025;-68
2023/11/25 10:35:54;;;;;;;11.05;4.70;;;4.00;99.90;;;;;;5019820;28;20472;-67
2023/11/25 10:38:22;;;;;;;7.82;3.30;;;3.80;99.90;;;;;;5033594;28;20044;-67
2023/11/25 10:40:51;;;;;;;8.27;3.15;;;3.70;99.90;;;;;;5022466;28;20021;-67
2023/11/25 10:43:20;;;;;;;10.98;3.20;;;3.70;99.90;;;;;;5031975;28;20087;-67
2023/11/25 10:45:46;;;;;;;11.52;4.63;;;3.70;99.90;;;;;;5037647;28;20022;-67
2023/11/25 10:48:12;;;;;;;8.60;3.75;;;3.70;99.90;;;;;;5036548;28;20083;-67
2023/11/25 10:50:41;;;;;;;11.48;4.45;;;3.90;99.90;;;;;;5035818;28;20087;-67
2023/11/25 10:53:13;;;;;;;11.07;3.33;;;3.90;99.90;;;;;;5029668;28;20056;-67
2023/11/25 10:55:43;;;;;;;13.63;4.60;;;4.00;99.90;;;;;;5039805;28;20598;-67
2023/11/25 10:58:11;;;;;;;13.63;4.43;;;4.10;99.90;;;;;;5033865;28;20592;-66
2023/11/25 11:00:39;;;;;;;5.57;2.30;;;4.10;99.90;;;;;;5040609;28;20060;-66
2023/11/25 11:03:09;;;;;;;14.63;4.65;;;4.10;99.90;;;;;;5037243;28;20032;-66
2023/11/25 11:05:49;;;;;;;10.25;4.07;;;4.20;99.90;;;;;;5020412;28;20029;-66
2023/11/25 11:08:30;;;;;;;11.38;3.60;;;4.40;99.90;;;;;;5035344;28;20465;-67
2023/11/25 11:10:59;;;;;;;16.30;4.70;;;4.60;99.90;;;;;;5031605;28;20022;-67
2023/11/25 11:13:33;;;;;;;10.52;4.32;;;4.80;99.90;;;;;;5036892;28;20048;-67
2023/11/25 11:16:22;;;;;;;11.43;3.95;;;4.80;99.90;;;;;;5017614;28;20077;-67
2023/11/25 11:18:52;;;;;;;13.75;5.07;;;4.80;99.90;;;;;;5018934;28;20290;-67
2023/11/25 11:21:21;;;;;;;17.33;4.82;;;4.80;99.90;;;;;;5037448;28;20025;-67
2023/11/25 11:23:48;;;;;;;7.55;2.83;;;4.80;99.90;;;;;;5035296;28;20025;-67
2023/11/25 11:26:32;;;;;;;10.65;4.07;;;4.70;99.90;;;;;;5037030;28;20647;-67
2023/11/25 11:29:13;;;;;;;12.98;3.88;;;4.70;99.90;;;;;;5034652;28;20029;-67
2023/11/25 11:32:06;;;;;;;9.82;3.47;;;4.60;99.90;;;;;;5033071;28;20021;-68
2023/11/25 11:34:35;;;;;;;13.20;4.15;;;4.60;99.90;;;;;;5034328;28;20040;-67
2023/11/25 11:37:01;;;;;;;11.65;4.72;;;4.50;99.90;;;;;;5040765;28;20033;-67
2023/11/25 11:39:59;;;;;;;12.05;4.50;;;4.50;99.90;;;;;;5042970;28;20111;-67
2023/11/25 11:42:34;;;;;;;14.57;5.32;;;4.50;99.90;;;;;;5039650;28;20633;-65
2023/11/25 11:45:26;;;;;;;12.70;4.80;;;4.40;99.90;;;;;;5041454;28;20013;-66
2023/11/25 11:48:02;;;;;;;12.00;4.00;;;4.50;99.90;;;;;;5038984;28;20032;-66
2023/11/25 11:50:33;;;;;;;9.60;4.05;;;4.60;99.90;;;;;;5035742;28;20029;-66
2023/11/25 11:53:01;;;;;;;14.40;3.90;;;4.60;99.90;;;;;;5035257;28;20021;-66
2023/11/25 11:55:34;;;;;;;14.07;4.25;;;4.70;99.90;;;;;;5021511;28;20136;-66
2023/11/25 11:58:04;;;;;;;12.32;4.32;;;4.60;99.90;;;;;;5013604;28;20546;-65
2023/11/25 12:00:32;;;;;;;26.73;5.10;;;4.60;99.90;;;;;;5019117;28;20033;-65
2023/11/25 12:03:00;;;;;;;12.90;4.40;;;4.60;99.90;;;;;;5020784;28;20053;-66
2023/11/25 12:05:25;;;;;;;9.38;4.45;;;4.60;99.90;;;;;;5021969;28;20026;-66
2023/11/25 12:07:53;;;;;;;11.95;3.72;;;4.70;99.90;;;;;;5044022;28;20028;-66
2023/11/25 12:10:19;;;;;;;13.07;3.45;;;4.70;99.90;;;;;;5018255;28;20034;-66
2023/11/25 12:12:45;;;;;;;9.35;3.78;;;4.80;99.90;;;;;;5042410;28;20056;-66
2023/11/25 12:15:11;;;;;;;8.88;2.80;;;4.80;99.90;;;;;;5040678;28;20112;-66
2023/11/25 12:17:41;;;;;;;12.38;4.55;;;4.70;99.90;;;;;;5042345;28;20021;-66
2023/11/25 12:20:13;;;;;;;11.90;2.90;;;4.80;99.90;;;;;;5037364;28;20025;-66
2023/11/25 12:22:42;;;;;;;8.20;2.90;;;4.80;99.90;;;;;;5041386;28;20025;-66
2023/11/25 12:25:13;;;;;;;12.50;3.15;;;4.80;99.90;;;;;;5024921;28;20033;-66
2023/11/25 12:28:03;;;;;;;9.73;2.72;;;4.80;99.90;;;;;;5028176;28;20022;-66
2023/11/25 12:30:28;;;;;;;7.90;2.58;;;4.90;99.90;;;;;;5037482;28;20063;-65
2023/11/25 12:32:55;;;;;;;8.52;2.33;;;4.90;99.90;;;;;;5034493;28;20458;-66
2023/11/25 12:35:22;;;;;;;9.75;3.55;;;;;;;;;;5043371;28;20029;-66
2023/11/25 12:37:50;;;;;;;10.75;2.50;;;4.90;99.90;;;;;;5042199;28;20025;-66
2023/11/25 12:40:18;;;;;;;14.70;3.65;;;4.90;99.90;;;;;;5036912;28;20021;-66
2023/11/25 12:42:49;;;;;;;9.68;2.42;;;4.90;99.90;;;;;;5025476;28;20555;-66
2023/11/25 12:45:47;;;;;;;13.13;2.78;;;4.90;99.90;;;;;;5024778;28;20017;-67
2023/11/25 12:48:16;;;;;;;17.63;2.65;;;4.90;99.90;;;;;;4990356;28;20025;-66
2023/11/25 12:51:06;;;;;;;10.73;3.28;;;4.90;99.90;;;;;;5024843;28;20067;-66
2023/11/25 12:53:34;;;;;;;10.75;3.25;;;5.00;99.90;;;;;;5036615;28;20041;-67
2023/11/25 12:56:01;;;;;;;8.20;2.63;;;5.10;99.90;;;;;;5039986;28;20014;-66